createdAt,value
2019-04-26T00:01:56.251Z,3.93
2019-04-26T00:04:25.303Z,5.33
2019-04-26T00:06:54.921Z,2.60
2019-04-26T00:09:32.702Z,6.53
2019-04-26T00:12:19.549Z,4.07
2019-04-26T00:15:06.812Z,2.50
2019-04-26T00:17:41.424Z,3.67
2019-04-26T00:20:11.924Z,5.07
2019-04-26T00:22:47.636Z,5.47
2019-04-26T00:25:18.656Z,3.83
2019-04-26T00:27:48.301Z,5.23
2019-04-26T00:30:17.633Z,3.17
2019-04-26T00:32:46.627Z,4.13
2019-04-26T00:35:15.979Z,7.27
2019-04-26T00:37:45.346Z,7.10
2019-04-26T00:40:14.870Z,3.47
2019-04-26T00:42:46.157Z,2.50
2019-04-26T00:45:16.742Z,4.93
2019-04-26T00:47:47.426Z,8.47
2019-04-26T00:50:19.115Z,5.07
2019-04-26T00:52:50.507Z,4.43
2019-04-26T00:55:22.010Z,4.97
2019-04-26T00:57:57.945Z,3.07
2019-04-26T01:00:29.347Z,1.60
2019-04-26T01:02:59.249Z,1.80
2019-04-26T01:05:30.259Z,2.37
2019-04-26T01:07:59.686Z,2.40
2019-04-26T01:10:29.090Z,1.60
2019-04-26T01:12:58.266Z,4.30
2019-04-26T01:15:28.429Z,2.40
2019-04-26T01:17:57.987Z,3.97
2019-04-26T01:20:30.318Z,2.40
2019-04-26T01:23:03.126Z,2.00
2019-04-26T01:25:40.095Z,2.07
2019-04-26T01:28:13.269Z,2.33
2019-04-26T01:30:45.278Z,1.87
2019-04-26T01:33:15.170Z,5.13
2019-04-26T01:35:44.590Z,2.00
2019-04-26T01:38:16.215Z,2.77
2019-04-26T01:40:50.038Z,2.33
2019-04-26T01:43:41.181Z,5.00
2019-04-26T01:46:16.420Z,4.00
2019-04-26T01:49:00.419Z,3.47
2019-04-26T01:51:44.677Z,2.60
2019-04-26T01:54:17.137Z,3.10
2019-04-26T01:56:49.282Z,2.97
2019-04-26T01:59:19.319Z,5.33
2019-04-26T02:02:07.725Z,2.60
2019-04-26T02:04:39.411Z,2.33
2019-04-26T02:07:08.974Z,3.30
2019-04-26T02:09:38.707Z,3.93
2019-04-26T02:12:08.351Z,2.93
2019-04-26T02:14:37.444Z,3.50
2019-04-26T02:17:06.614Z,5.47
2019-04-26T02:19:35.830Z,2.30
2019-04-26T02:22:21.363Z,3.80
2019-04-26T02:24:51.515Z,1.90
2019-04-26T02:27:24.830Z,1.90
2019-04-26T02:29:54.013Z,2.67
2019-04-26T02:32:23.325Z,2.03
2019-04-26T02:34:53.471Z,2.00
2019-04-26T02:37:22.702Z,3.37
2019-04-26T02:39:54.509Z,2.17
2019-04-26T02:42:35.000Z,2.27
2019-04-26T02:45:57.689Z,3.00
2019-04-26T02:48:50.245Z,2.20
2019-04-26T02:51:24.126Z,3.50
2019-04-26T02:54:05.618Z,3.20
2019-04-26T02:56:40.859Z,4.30
2019-04-26T02:59:36.195Z,7.20
2019-04-26T03:02:07.769Z,4.27
2019-04-26T03:04:39.817Z,6.90
2019-04-26T03:07:32.089Z,3.07
2019-04-26T03:10:03.560Z,3.60
2019-04-26T03:12:37.493Z,4.37
2019-04-26T03:15:18.354Z,4.07
2019-04-26T03:17:56.887Z,2.80
2019-04-26T03:20:36.294Z,2.63
2019-04-26T03:23:22.501Z,3.47
2019-04-26T03:26:23.431Z,2.20
2019-04-26T03:29:26.458Z,2.60
2019-04-26T03:32:17.391Z,5.30
2019-04-26T03:34:56.086Z,3.47
2019-04-26T03:37:58.836Z,5.53
2019-04-26T03:40:44.607Z,3.13
2019-04-26T03:43:51.591Z,3.23
2019-04-26T03:46:34.861Z,5.57
2019-04-26T03:49:44.214Z,3.70
2019-04-26T03:52:57.339Z,3.33
2019-04-26T03:56:03.964Z,5.67
2019-04-26T03:59:00.757Z,7.27
2019-04-26T04:01:35.421Z,6.70
2019-04-26T04:04:24.767Z,5.10
2019-04-26T04:07:04.273Z,6.50
2019-04-26T04:09:28.628Z,7.07
2019-04-26T04:12:11.860Z,7.93
2019-04-26T04:14:55.105Z,7.80
2019-04-26T04:17:39.660Z,6.30
2019-04-26T04:20:26.393Z,5.60
2019-04-26T04:23:12.663Z,6.77
2019-04-26T04:25:47.273Z,7.33
2019-04-26T04:28:30.743Z,10.80
2019-04-26T04:31:29.349Z,7.10
2019-04-26T04:34:21.783Z,8.87
2019-04-26T04:36:53.954Z,8.53
2019-04-26T04:39:38.807Z,12.33
2019-04-26T04:42:38.029Z,13.23
2019-04-26T04:45:59.257Z,12.27
2019-04-26T04:48:53.900Z,15.63
2019-04-26T04:51:36.798Z,16.20
2019-04-26T04:54:25.055Z,20.63
2019-04-26T04:57:19.170Z,18.67
2019-04-26T05:00:14.987Z,18.80
2019-04-26T05:02:56.787Z,17.77
2019-04-26T05:06:14.233Z,18.27
2019-04-26T05:08:58.623Z,19.50
2019-04-26T05:11:37.870Z,18.90
2019-04-26T05:14:29.695Z,17.33
2019-04-26T05:17:53.656Z,19.70
2019-04-26T05:20:32.934Z,18.07
2019-04-26T05:23:55.233Z,22.77
2019-04-26T05:27:08.677Z,15.60
2019-04-26T05:30:36.330Z,19.20
2019-04-26T05:33:15.900Z,13.03
2019-04-26T05:36:41.542Z,13.20
2019-04-26T05:39:21.799Z,19.00
2019-04-26T05:42:30.261Z,18.17
2019-04-26T05:45:36.955Z,13.10
2019-04-26T05:48:36.447Z,17.07
2019-04-26T05:51:37.852Z,20.27
2019-04-26T05:54:58.279Z,22.03
2019-04-26T05:58:00.006Z,23.30
2019-04-26T06:01:00.685Z,25.20
2019-04-26T06:04:16.518Z,21.17
2019-04-26T06:07:01.357Z,22.20
2019-04-26T06:10:20.978Z,21.13
2019-04-26T06:13:28.584Z,20.97
2019-04-26T06:16:10.615Z,21.23
2019-04-26T06:19:02.811Z,20.03
2019-04-26T06:21:53.787Z,21.87
2019-04-26T06:24:58.747Z,21.97
2019-04-26T06:27:58.405Z,22.43
2019-04-26T06:30:51.502Z,27.30
2019-04-26T06:33:43.874Z,18.57
2019-04-26T06:36:21.602Z,20.77
2019-04-26T06:39:30.409Z,18.97
2019-04-26T06:42:31.199Z,17.30
2019-04-26T06:46:38.379Z,16.57
2019-04-26T06:49:35.351Z,18.63
2019-04-26T10:50:50.808Z,20.20
2019-04-26T10:53:43.917Z,6.30
2019-04-26T10:56:29.327Z,6.90
2019-04-26T10:59:12.879Z,10.20
2019-04-26T11:01:42.249Z,6.80
2019-04-26T11:04:11.526Z,7.83
2019-04-26T11:06:44.097Z,8.43
2019-04-26T11:09:14.887Z,5.87
2019-04-26T11:11:44.739Z,7.90
2019-04-26T11:14:14.044Z,6.93
2019-04-26T11:16:43.473Z,5.57
2019-04-26T11:19:12.493Z,7.37
2019-04-26T11:21:41.896Z,7.30
2019-04-26T11:24:11.002Z,6.70
2019-04-26T11:26:40.754Z,8.87
2019-04-26T11:29:10.770Z,8.23
2019-04-26T11:31:40.373Z,10.13
2019-04-26T11:34:10.918Z,8.20
2019-04-26T11:36:41.706Z,6.37
2019-04-26T11:39:14.307Z,8.20
2019-04-26T11:41:43.580Z,6.57
2019-04-26T11:44:13.566Z,8.30
2019-04-26T11:46:45.122Z,5.60
2019-04-26T11:49:13.960Z,7.13
2019-04-26T11:51:43.180Z,5.47
2019-04-26T11:54:16.926Z,8.07
2019-04-26T11:56:44.787Z,5.90
2019-04-26T11:59:14.181Z,5.87
2019-04-26T12:01:44.199Z,8.93
2019-04-26T12:04:35.968Z,6.90
2019-04-26T12:07:15.186Z,5.67
2019-04-26T12:09:46.711Z,6.37
2019-04-26T12:12:16.058Z,8.17
2019-04-26T12:14:45.355Z,7.37
2019-04-26T12:17:14.606Z,8.07
2019-04-26T12:19:44.120Z,7.63
2019-04-26T12:22:13.702Z,7.07
2019-04-26T12:24:43.219Z,7.27
2019-04-26T12:27:12.298Z,7.37
2019-04-26T12:29:44.245Z,5.93
2019-04-26T12:32:13.159Z,6.43
2019-04-26T12:34:45.165Z,7.60
2019-04-26T12:37:19.916Z,6.73
2019-04-26T12:39:48.314Z,7.27
2019-04-26T12:42:24.295Z,5.27
2019-04-26T12:45:27.281Z,8.87
2019-04-26T12:47:58.616Z,7.23
2019-04-26T12:50:29.465Z,4.63
2019-04-26T12:52:59.464Z,5.10
2019-04-26T12:55:29.510Z,7.40
2019-04-26T12:57:58.534Z,4.70
2019-04-26T13:00:33.056Z,6.97
2019-04-26T13:03:03.323Z,6.63
2019-04-26T13:05:35.075Z,7.43
2019-04-26T13:08:04.451Z,4.20
2019-04-26T13:10:52.458Z,8.17
2019-04-26T13:13:40.536Z,6.33
2019-04-26T13:16:21.821Z,6.37
2019-04-26T13:18:51.650Z,8.17
2019-04-26T13:21:21.301Z,6.03
2019-04-26T13:23:50.700Z,7.50
2019-04-26T13:26:20.120Z,7.27
2019-04-26T13:28:52.409Z,6.97
2019-04-26T13:31:20.937Z,7.50
2019-04-26T13:33:50.219Z,6.50
2019-04-26T13:36:19.513Z,5.10
2019-04-26T13:38:48.611Z,5.47
2019-04-26T13:41:18.237Z,5.47
2019-04-26T13:43:47.860Z,5.57
2019-04-26T13:46:40.749Z,5.87
2019-04-26T13:49:21.581Z,7.63
2019-04-26T13:51:51.304Z,11.10
2019-04-26T13:54:22.700Z,9.13
2019-04-26T13:56:51.919Z,8.23
2019-04-26T13:59:21.409Z,11.17
2019-04-26T14:01:50.978Z,9.50
2019-04-26T14:04:20.007Z,8.93
2019-04-26T14:06:49.358Z,9.00
2019-04-26T14:09:18.558Z,10.83
2019-04-26T14:11:48.194Z,10.37
2019-04-26T14:14:17.513Z,9.97
2019-04-26T14:16:46.658Z,9.40
2019-04-26T14:19:16.897Z,8.93
2019-04-26T14:21:46.734Z,10.93
2019-04-26T14:24:33.482Z,10.93
2019-04-26T14:27:10.475Z,13.97
2019-04-26T14:29:38.517Z,12.03
2019-04-26T14:32:08.083Z,13.40
2019-04-26T14:34:40.453Z,13.47
2019-04-26T14:37:11.146Z,15.47
2019-04-26T14:39:49.975Z,12.30
2019-04-26T14:42:10.192Z,12.50
2019-04-26T14:44:49.160Z,9.47
2019-04-26T14:47:14.754Z,10.23
2019-04-26T14:49:43.117Z,10.53
2019-04-26T14:52:12.687Z,11.37
2019-04-26T14:54:46.107Z,11.77
2019-04-26T14:57:21.385Z,13.70
2019-04-26T14:59:47.661Z,12.20
2019-04-26T15:02:56.224Z,9.73
2019-04-26T15:05:43.126Z,9.30
2019-04-26T15:08:11.709Z,10.77
2019-04-26T15:10:46.754Z,8.13
2019-04-26T15:13:19.889Z,9.23
2019-04-26T15:15:46.115Z,11.33
2019-04-26T15:18:15.748Z,9.07
2019-04-26T15:20:45.271Z,9.13
2019-04-26T15:23:14.546Z,8.67
2019-04-26T15:25:48.316Z,7.47
2019-04-26T15:28:14.772Z,8.47
2019-04-26T15:30:46.796Z,5.80
2019-04-26T15:33:15.917Z,6.87
2019-04-26T15:35:46.102Z,9.37
2019-04-26T15:38:15.445Z,8.37
2019-04-26T15:41:11.566Z,9.20
2019-04-26T15:43:53.419Z,8.47
2019-04-26T15:46:42.626Z,6.47
2019-04-26T15:49:34.736Z,6.40
2019-04-26T15:52:02.554Z,6.47
2019-04-26T15:54:35.764Z,5.90
2019-04-26T15:57:06.774Z,5.50
2019-04-26T15:59:36.383Z,6.50
2019-04-26T16:02:06.029Z,6.67
2019-04-26T16:04:35.338Z,5.20
2019-04-26T16:07:05.577Z,5.27
2019-04-26T16:09:35.024Z,3.63
2019-04-26T16:12:04.503Z,5.17
2019-04-26T16:14:36.747Z,4.57
2019-04-26T16:17:06.615Z,5.33
2019-04-26T16:19:38.927Z,3.47
2019-04-26T16:22:08.422Z,4.13
2019-04-26T16:24:38.507Z,4.07
2019-04-26T16:27:08.154Z,4.17
2019-04-26T16:29:58.370Z,3.90
2019-04-26T16:32:43.237Z,3.37
2019-04-26T16:35:12.924Z,3.00
2019-04-26T16:37:43.694Z,3.37
2019-04-26T16:40:14.046Z,2.43
2019-04-26T16:42:43.638Z,2.50
2019-04-26T16:45:12.940Z,2.80
2019-04-26T16:47:47.368Z,1.83
2019-04-26T16:50:15.010Z,2.33
2019-04-26T16:52:47.748Z,3.60
2019-04-26T16:55:20.855Z,2.40
2019-04-26T16:57:53.784Z,5.50
2019-04-26T17:00:17.428Z,2.43
2019-04-26T17:02:46.642Z,2.60
2019-04-26T17:05:20.885Z,2.97
2019-04-26T17:07:46.662Z,4.03
2019-04-26T17:10:16.635Z,3.23
2019-04-26T17:12:50.770Z,4.67
2019-04-26T17:15:21.141Z,5.23
2019-04-26T17:17:50.525Z,5.67
2019-04-26T17:20:19.190Z,7.00
2019-04-26T17:23:06.293Z,5.47
2019-04-26T17:25:55.146Z,5.97
2019-04-26T17:28:26.231Z,7.37
2019-04-26T17:30:53.636Z,8.70
2019-04-26T17:33:28.072Z,10.40
2019-04-26T17:35:54.402Z,13.83
2019-04-26T17:38:23.965Z,12.40
2019-04-26T17:40:53.378Z,12.60
2019-04-26T17:43:22.447Z,10.37
2019-04-26T17:45:52.076Z,14.47
2019-04-26T17:48:21.251Z,16.30
2019-04-26T17:50:50.723Z,24.13
2019-04-26T17:53:28.631Z,19.87
2019-04-26T17:55:54.814Z,23.50
2019-04-26T17:58:27.446Z,22.17
2019-04-26T18:00:56.559Z,23.87
2019-04-26T18:03:24.585Z,23.80
2019-04-26T18:05:57.069Z,23.57
2019-04-26T18:08:41.120Z,28.03
2019-04-26T18:11:05.393Z,25.80
2019-04-26T18:13:34.925Z,24.57
2019-04-26T18:16:04.325Z,27.37
2019-04-26T18:18:54.373Z,30.43
2019-04-26T18:21:40.600Z,33.43
2019-04-26T18:24:10.316Z,29.37
2019-04-26T18:26:39.935Z,33.97
2019-04-26T18:29:09.270Z,33.60
2019-04-26T18:31:38.645Z,35.30
2019-04-26T18:34:08.063Z,35.57
2019-04-26T18:36:37.647Z,36.93
2019-04-26T18:39:11.714Z,37.13
2019-04-26T18:41:41.130Z,34.17
2019-04-26T18:44:14.439Z,38.30
2019-04-26T18:46:49.676Z,33.20
2019-04-26T18:49:26.988Z,37.57
2019-04-26T18:51:54.648Z,37.87
2019-04-26T18:54:29.661Z,38.93
2019-04-26T18:57:03.194Z,42.87
2019-04-26T18:59:34.190Z,39.67
2019-04-26T19:02:04.035Z,36.53
2019-04-26T19:04:33.935Z,39.90
2019-04-26T19:07:12.047Z,35.17
2019-04-26T19:09:56.761Z,38.10
2019-04-26T19:12:41.240Z,37.80
2019-04-26T19:15:11.970Z,38.67
2019-04-26T19:17:48.411Z,39.80
2019-04-26T19:20:43.147Z,41.00
2019-04-26T19:23:12.784Z,38.13
2019-04-26T19:25:46.242Z,40.07
2019-04-26T19:28:15.362Z,42.90
2019-04-26T19:30:50.977Z,42.07
2019-04-26T19:33:23.116Z,42.80
2019-04-26T19:35:54.718Z,41.83
2019-04-26T19:38:33.136Z,47.17
2019-04-26T19:41:03.017Z,43.37
2019-04-26T19:43:35.054Z,47.30
2019-04-26T19:46:16.944Z,48.93
2019-04-26T19:49:03.444Z,47.53
2019-04-26T19:51:44.287Z,45.37
2019-04-26T19:54:38.498Z,45.27
2019-04-26T19:57:21.745Z,49.27
2019-04-26T19:59:58.296Z,53.87
2019-04-26T20:02:35.882Z,45.63
2019-04-26T20:05:02.396Z,48.30
2019-04-26T20:07:33.383Z,46.20
2019-04-26T20:10:05.096Z,46.23
2019-04-26T20:12:37.840Z,46.33
2019-04-26T20:15:05.300Z,51.30
2019-04-26T20:17:34.777Z,50.60
2019-04-26T20:20:16.592Z,49.33
2019-04-26T20:22:35.014Z,48.53
2019-04-26T20:25:04.741Z,52.30
2019-04-26T20:27:34.180Z,51.73
2019-04-26T20:30:05.391Z,53.47
2019-04-26T20:32:37.251Z,52.33
2019-04-26T20:35:13.211Z,54.90
2019-04-26T20:37:45.159Z,50.10
2019-04-26T20:40:22.170Z,56.87
2019-04-26T20:42:46.817Z,49.07
2019-04-26T20:45:16.999Z,52.07
2019-04-26T20:47:46.812Z,56.40
2019-04-26T20:50:17.574Z,54.97
2019-04-26T20:52:46.763Z,53.43
2019-04-26T20:55:16.017Z,49.97
2019-04-26T20:57:45.214Z,54.50
2019-04-26T21:00:15.376Z,52.83
2019-04-26T21:02:44.647Z,49.33
2019-04-26T21:05:14.787Z,49.33
2019-04-26T21:07:49.220Z,49.27
2019-04-26T21:10:21.690Z,61.33
2019-04-26T21:12:52.284Z,54.80
2019-04-26T21:15:20.379Z,55.53
2019-04-26T21:17:49.702Z,57.90
2019-04-26T21:20:27.698Z,56.10
2019-04-26T21:23:01.742Z,53.00
2019-04-26T21:25:41.971Z,56.40
2019-04-26T21:28:17.452Z,54.77
2019-04-26T21:30:55.475Z,58.70
2019-04-26T21:33:28.667Z,61.33
2019-04-26T21:36:36.212Z,56.97
2019-04-26T21:39:15.999Z,58.03
2019-04-26T21:41:48.299Z,55.07
2019-04-26T21:44:17.242Z,54.73
2019-04-26T21:46:49.529Z,56.63
2019-04-26T21:49:20.641Z,54.43
2019-04-26T21:52:10.479Z,57.67
2019-04-26T21:54:39.952Z,59.50
2019-04-26T21:57:11.741Z,57.57
2019-04-26T21:59:46.194Z,57.23
2019-04-26T22:02:15.982Z,55.80
2019-04-26T22:04:45.346Z,60.83
2019-04-26T22:07:16.217Z,53.80
2019-04-26T22:10:09.213Z,59.50
2019-04-26T22:12:36.544Z,55.77
2019-04-26T22:15:35.815Z,59.53
2019-04-26T22:18:10.233Z,57.83
2019-04-26T22:20:50.769Z,57.13
2019-04-26T22:23:43.666Z,62.33
2019-04-26T22:26:14.264Z,58.77
2019-04-26T22:28:44.346Z,56.13
2019-04-26T22:31:13.678Z,61.10
2019-04-26T22:33:44.570Z,54.63
2019-04-26T22:36:14.011Z,57.63
2019-04-26T22:38:43.114Z,55.27
2019-04-26T22:41:13.425Z,58.53
2019-04-26T22:43:49.711Z,58.03
2019-04-26T22:46:46.591Z,59.30
2019-04-26T22:49:08.687Z,60.30
2019-04-26T22:51:37.833Z,55.77
2019-04-26T22:54:07.437Z,55.57
2019-04-26T22:56:37.195Z,56.80
2019-04-26T22:59:08.164Z,58.47
2019-04-26T23:01:39.223Z,56.80
2019-04-26T23:04:09.746Z,66.00
2019-04-26T23:06:42.459Z,61.30
2019-04-26T23:09:11.618Z,60.37
2019-04-26T23:11:46.579Z,64.40
2019-04-26T23:14:34.294Z,57.30
2019-04-26T23:17:27.193Z,54.00
2019-04-26T23:19:59.280Z,56.57
2019-04-26T23:22:31.086Z,53.50
2019-04-26T23:24:59.289Z,59.10
2019-04-26T23:27:28.729Z,59.13
2019-04-26T23:29:58.514Z,51.90
2019-04-26T23:32:28.294Z,50.77
2019-04-26T23:34:58.254Z,57.93
2019-04-26T23:37:28.524Z,54.40
2019-04-26T23:39:58.458Z,57.10
2019-04-26T23:42:27.951Z,53.87
2019-04-26T23:44:57.524Z,55.63
2019-04-26T23:47:27.129Z,55.67
2019-04-26T23:49:57.051Z,49.47
2019-04-26T23:52:27.207Z,50.37
2019-04-26T23:54:56.655Z,54.13
2019-04-26T23:57:27.345Z,49.43
